createdAt,value
2022-08-17T00:01:52.124Z,19.80
2022-08-17T00:04:20.347Z,19.80
2022-08-17T00:06:49.171Z,19.80
2022-08-17T00:09:18.478Z,19.70
2022-08-17T00:12:42.248Z,19.60
2022-08-17T00:14:34.897Z,19.50
2022-08-17T00:17:03.842Z,19.60
2022-08-17T00:19:32.546Z,19.40
2022-08-17T00:22:31.601Z,19.40
2022-08-17T00:24:50.116Z,19.50
2022-08-17T00:27:17.306Z,19.40
2022-08-17T00:29:45.717Z,19.30
2022-08-17T00:33:11.926Z,19.40
2022-08-17T00:35:00.477Z,19.40
2022-08-17T00:37:27.623Z,19.40
2022-08-17T00:39:54.599Z,19.40
2022-08-17T00:42:21.492Z,19.40
2022-08-17T00:44:48.430Z,19.30
2022-08-17T00:47:15.219Z,19.20
2022-08-17T00:49:42.044Z,19.20
2022-08-17T00:52:16.619Z,19.10
2022-08-17T00:54:46.974Z,19.10
2022-08-17T00:57:23.391Z,19.10
2022-08-17T01:00:06.325Z,19.10
2022-08-17T01:02:42.497Z,19.10
2022-08-17T01:05:18.425Z,19.10
2022-08-17T01:07:47.806Z,18.90
2022-08-17T01:10:58.157Z,18.90
2022-08-17T01:13:04.189Z,19.00
2022-08-17T01:15:33.724Z,19.00
2022-08-17T01:18:00.617Z,19.10
2022-08-17T01:20:27.672Z,19.10
2022-08-17T01:22:54.520Z,19.00
2022-08-17T01:25:22.152Z,19.00
2022-08-17T01:27:49.747Z,19.00
2022-08-17T01:30:56.922Z,19.00
2022-08-17T01:33:04.657Z,18.90
2022-08-17T01:35:31.671Z,18.90
2022-08-17T01:37:58.496Z,18.90
2022-08-17T01:40:43.247Z,18.80
2022-08-17T01:43:21.539Z,18.80
2022-08-17T01:46:03.508Z,18.70
2022-08-17T01:48:34.217Z,18.70
2022-08-17T01:51:01.424Z,18.60
2022-08-17T01:53:37.450Z,18.50
2022-08-17T01:56:10.761Z,18.50
2022-08-17T01:58:39.849Z,18.50
2022-08-17T02:01:08.226Z,18.50
2022-08-17T02:03:36.451Z,18.40
2022-08-17T02:06:05.430Z,18.40
2022-08-17T02:08:38.690Z,18.30
2022-08-17T02:11:11.813Z,18.40
2022-08-17T02:13:39.310Z,18.40
2022-08-17T02:16:06.760Z,18.30
2022-08-17T02:18:33.988Z,18.20
2022-08-17T02:21:00.802Z,18.00
2022-08-17T02:23:30.244Z,17.70
2022-08-17T02:25:59.730Z,17.40
2022-08-17T02:28:28.389Z,17.50
2022-08-17T02:31:01.518Z,17.60
2022-08-17T02:33:42.041Z,17.60
2022-08-17T02:36:12.118Z,17.70
2022-08-17T02:38:39.861Z,17.70
2022-08-17T02:41:07.032Z,17.60
2022-08-17T02:43:34.910Z,17.50
2022-08-17T02:46:01.937Z,17.50
2022-08-17T02:48:31.611Z,17.50
2022-08-17T02:50:59.938Z,17.50
2022-08-17T02:53:27.633Z,17.50
2022-08-17T02:56:02.590Z,17.40
2022-08-17T02:58:34.314Z,17.40
2022-08-17T03:01:05.093Z,17.30
2022-08-17T03:03:31.944Z,17.40
2022-08-17T03:05:58.792Z,17.40
2022-08-17T03:08:25.685Z,17.30
2022-08-17T03:10:52.697Z,17.40
2022-08-17T03:13:20.021Z,17.20
2022-08-17T03:15:48.405Z,17.20
2022-08-17T03:18:19.078Z,17.20
2022-08-17T03:20:56.140Z,17.20
2022-08-17T03:23:25.478Z,17.10
2022-08-17T03:25:54.120Z,17.00
2022-08-17T03:28:22.456Z,17.00
2022-08-17T03:30:51.013Z,16.80
2022-08-17T03:33:18.586Z,16.80
2022-08-17T03:35:45.680Z,16.80
2022-08-17T03:38:15.357Z,16.80
2022-08-17T03:40:58.058Z,16.80
2022-08-17T03:43:29.447Z,16.80
2022-08-17T03:46:28.485Z,16.70
2022-08-17T03:49:24.673Z,16.80
2022-08-17T03:52:10.614Z,16.80
2022-08-17T03:54:56.129Z,16.70
2022-08-17T03:57:23.185Z,16.70
2022-08-17T03:59:50.668Z,16.60
2022-08-17T04:02:34.439Z,16.50
2022-08-17T04:05:01.597Z,16.50
2022-08-17T04:07:30.466Z,16.60
2022-08-17T04:09:58.213Z,16.50
2022-08-17T04:12:26.422Z,16.50
2022-08-17T04:14:55.036Z,16.50
2022-08-17T04:17:25.133Z,16.30
2022-08-17T04:19:52.526Z,16.30
2022-08-17T04:22:30.601Z,16.30
2022-08-17T04:25:08.562Z,16.30
2022-08-17T04:27:36.096Z,16.30
2022-08-17T04:30:03.767Z,16.40
2022-08-17T04:33:04.099Z,16.40
2022-08-17T04:35:20.197Z,16.50
2022-08-17T04:37:47.471Z,16.40
2022-08-17T04:40:32.741Z,16.40
2022-08-17T04:43:07.729Z,16.50
2022-08-17T04:45:54.995Z,16.50
2022-08-17T04:48:29.686Z,16.60
2022-08-17T04:51:07.438Z,16.70
2022-08-17T04:53:34.330Z,16.80
2022-08-17T04:56:01.313Z,16.80
2022-08-17T04:58:28.183Z,16.80
2022-08-17T05:00:55.039Z,16.90
2022-08-17T05:03:21.871Z,16.90
2022-08-17T05:05:49.831Z,17.00
2022-08-17T05:08:19.479Z,17.10
2022-08-17T05:10:47.234Z,17.10
2022-08-17T05:13:26.242Z,17.20
2022-08-17T05:15:56.349Z,17.30
2022-08-17T05:18:24.532Z,17.40
2022-08-17T05:20:52.636Z,17.60
2022-08-17T05:23:22.144Z,17.60
2022-08-17T05:25:51.419Z,17.80
2022-08-17T05:28:23.535Z,17.90
2022-08-17T05:30:54.937Z,17.90
2022-08-17T05:33:26.349Z,17.90
2022-08-17T05:35:55.316Z,18.00
2022-08-17T05:38:24.464Z,18.00
2022-08-17T05:40:51.747Z,18.00
2022-08-17T05:43:30.904Z,18.10
2022-08-17T05:46:03.517Z,18.20
2022-08-17T05:48:43.275Z,18.30
2022-08-17T05:51:37.791Z,18.40
2022-08-17T05:54:22.869Z,18.50
2022-08-17T05:57:16.199Z,18.60
2022-08-17T06:00:04.612Z,18.70
2022-08-17T06:02:57.173Z,18.80
2022-08-17T06:05:23.984Z,19.00
2022-08-17T06:08:23.063Z,19.10
2022-08-17T06:11:28.191Z,19.20
2022-08-17T06:14:22.230Z,19.30
2022-08-17T06:16:54.635Z,19.40
2022-08-17T06:19:40.606Z,19.50
2022-08-17T06:22:10.090Z,19.60
2022-08-17T06:25:05.296Z,19.70
2022-08-17T06:27:46.187Z,19.70
2022-08-17T06:30:25.767Z,19.80
2022-08-17T06:32:55.893Z,19.90
2022-08-17T06:35:37.911Z,20.00
2022-08-17T06:38:34.995Z,20.00
2022-08-17T06:41:37.800Z,20.10
2022-08-17T06:44:57.311Z,20.30
2022-08-17T06:47:49.373Z,20.40
2022-08-17T06:50:27.945Z,20.50
2022-08-17T06:53:19.745Z,20.60
2022-08-17T06:55:52.410Z,20.70
2022-08-17T06:58:23.652Z,20.90
2022-08-17T07:01:00.968Z,21.10
2022-08-17T07:03:54.733Z,21.40
2022-08-17T07:06:25.106Z,21.60
2022-08-17T07:09:23.196Z,21.80
2022-08-17T07:11:54.400Z,22.00
2022-08-17T07:14:57.908Z,22.20
2022-08-17T07:17:36.938Z,22.30
2022-08-17T07:20:20.476Z,22.40
2022-08-17T07:23:06.683Z,22.50
2022-08-17T07:25:33.530Z,22.70
2022-08-17T07:28:05.296Z,22.90
2022-08-17T07:30:45.853Z,23.00
2022-08-17T07:33:28.103Z,23.10
2022-08-17T07:35:58.115Z,23.20
2022-08-17T07:38:30.506Z,23.20
2022-08-17T07:41:00.208Z,23.20
2022-08-17T07:43:40.251Z,23.40
2022-08-17T07:46:37.495Z,23.50
2022-08-17T07:49:04.989Z,23.70
2022-08-17T07:51:42.690Z,23.90
2022-08-17T07:54:15.693Z,24.20
2022-08-17T07:56:47.112Z,24.50
2022-08-17T07:59:24.012Z,24.70
2022-08-17T08:01:58.064Z,25.00
2022-08-17T08:04:58.879Z,25.10
2022-08-17T08:07:48.962Z,25.30
2022-08-17T08:10:27.949Z,25.50
2022-08-17T08:13:20.962Z,25.70
2022-08-17T08:15:54.232Z,25.90
2022-08-17T08:18:53.773Z,26.00
2022-08-17T08:21:29.152Z,26.10
2022-08-17T08:24:34.710Z,26.10
2022-08-17T08:27:27.666Z,26.20
2022-08-17T08:30:08.761Z,26.30
2022-08-17T08:32:38.518Z,26.50
2022-08-17T08:35:07.690Z,26.60
2022-08-17T08:37:47.934Z,26.70
2022-08-17T08:40:51.761Z,26.80
2022-08-17T08:43:26.561Z,26.80
2022-08-17T08:45:56.677Z,27.00
2022-08-17T08:48:53.639Z,27.00
2022-08-17T08:51:57.329Z,27.10
2022-08-17T08:54:58.460Z,27.30
2022-08-17T08:57:36.132Z,27.50
2022-08-17T09:00:06.411Z,27.70
2022-08-17T09:02:42.291Z,27.90
2022-08-17T09:05:16.121Z,28.10
2022-08-17T09:08:01.475Z,28.20
2022-08-17T09:10:54.043Z,28.30
2022-08-17T09:13:31.220Z,28.50
2022-08-17T09:16:06.684Z,28.80
2022-08-17T09:19:00.418Z,28.90
2022-08-17T09:21:48.533Z,28.90
2022-08-17T09:24:29.041Z,29.00
2022-08-17T09:27:18.346Z,29.10
2022-08-17T09:29:56.377Z,29.20
2022-08-17T09:32:31.189Z,29.30
2022-08-17T09:35:14.748Z,29.50
2022-08-17T09:38:03.912Z,29.60
2022-08-17T09:41:11.091Z,29.70
2022-08-17T09:43:50.644Z,29.80
2022-08-17T09:46:23.931Z,29.70
2022-08-17T09:48:57.562Z,29.80
2022-08-17T09:51:35.867Z,29.70
2022-08-17T09:54:34.969Z,29.80
2022-08-17T09:57:28.008Z,29.90
2022-08-17T09:59:57.332Z,30.10
2022-08-17T10:02:50.886Z,30.30
2022-08-17T10:05:24.036Z,30.50
2022-08-17T10:08:01.984Z,30.60
2022-08-17T10:10:56.618Z,30.80
2022-08-17T10:13:53.084Z,30.90
2022-08-17T10:16:40.765Z,31.10
2022-08-17T10:19:18.542Z,31.10
2022-08-17T10:22:14.513Z,31.00
2022-08-17T10:25:22.642Z,30.90
2022-08-17T10:28:01.364Z,30.90
2022-08-17T10:30:32.358Z,31.10
2022-08-17T10:33:06.747Z,31.20
2022-08-17T10:35:39.759Z,31.20
2022-08-17T10:38:31.536Z,31.00
2022-08-17T10:41:30.986Z,30.90
2022-08-17T10:44:38.932Z,30.90
2022-08-17T10:47:11.715Z,30.90
2022-08-17T10:49:55.913Z,31.10
2022-08-17T10:52:25.039Z,31.20
2022-08-17T10:54:58.398Z,31.20
2022-08-17T10:57:31.951Z,31.10
2022-08-17T11:00:01.466Z,31.20
2022-08-17T11:02:52.874Z,31.20
2022-08-17T11:05:44.115Z,31.10
2022-08-17T11:08:54.186Z,31.10
2022-08-17T11:11:39.875Z,31.10
2022-08-17T11:14:13.886Z,31.20
2022-08-17T11:17:13.057Z,31.40
2022-08-17T11:19:53.772Z,31.30
2022-08-17T11:22:41.275Z,31.40
2022-08-17T11:25:20.463Z,31.60
2022-08-17T11:27:53.821Z,31.80
2022-08-17T11:30:44.432Z,31.70
2022-08-17T11:33:44.652Z,31.90
2022-08-17T11:36:34.340Z,32.10
2022-08-17T11:39:25.021Z,32.20
2022-08-17T11:42:11.864Z,32.30
2022-08-17T11:44:38.720Z,32.80
2022-08-17T11:47:42.703Z,33.30
2022-08-17T11:50:52.076Z,33.40
2022-08-17T11:53:37.241Z,33.60
2022-08-17T11:56:31.726Z,33.70
2022-08-17T11:59:00.667Z,33.60
2022-08-17T12:01:29.283Z,33.50
2022-08-17T12:04:25.154Z,33.60
2022-08-17T12:06:54.585Z,33.40
2022-08-17T12:09:25.093Z,33.10
2022-08-17T12:12:11.787Z,32.90
2022-08-17T12:17:40.767Z,33.10
2022-08-17T12:20:23.041Z,33.00
2022-08-17T12:23:01.102Z,32.70
2022-08-17T12:26:12.814Z,32.60
2022-08-17T12:28:45.747Z,32.60
2022-08-17T12:31:24.633Z,32.40
2022-08-17T12:33:52.181Z,32.40
2022-08-17T12:36:28.233Z,32.50
2022-08-17T12:39:14.024Z,32.40
2022-08-17T12:41:45.257Z,32.40
2022-08-17T12:44:13.733Z,32.40
2022-08-17T12:46:51.916Z,32.30
2022-08-17T12:49:32.888Z,32.30
2022-08-17T12:52:16.904Z,32.40
2022-08-17T12:55:21.316Z,32.50
2022-08-17T12:57:54.182Z,32.50
2022-08-17T13:00:29.003Z,32.60
2022-08-17T13:03:18.001Z,32.50
2022-08-17T13:05:58.865Z,32.60
2022-08-17T13:08:31.817Z,32.70
2022-08-17T13:11:09.761Z,32.70
2022-08-17T13:13:42.062Z,32.70
2022-08-17T13:16:11.820Z,32.60
2022-08-17T13:18:43.762Z,32.40
2022-08-17T13:21:33.238Z,32.20
2022-08-17T13:24:13.696Z,32.00
2022-08-17T13:26:51.530Z,31.90
2022-08-17T13:29:29.381Z,31.80
2022-08-17T13:32:16.500Z,31.90
2022-08-17T13:35:12.537Z,31.90
2022-08-17T13:37:41.026Z,31.70
2022-08-17T13:40:09.589Z,31.50
2022-08-17T13:42:52.854Z,31.40
2022-08-17T13:45:39.152Z,31.30
2022-08-17T13:48:13.888Z,31.20
2022-08-17T13:50:46.064Z,31.10
2022-08-17T13:53:33.867Z,31.10
2022-08-17T13:56:38.204Z,30.90
2022-08-17T13:59:15.729Z,30.80
2022-08-17T14:01:53.543Z,30.70
2022-08-17T14:04:31.739Z,30.60
2022-08-17T14:07:11.545Z,30.60
2022-08-17T14:09:52.466Z,30.60
2022-08-17T14:12:25.088Z,30.70
2022-08-17T14:14:53.346Z,30.70
2022-08-17T14:17:20.245Z,30.80
2022-08-17T14:19:48.053Z,30.90
2022-08-17T14:22:27.551Z,30.90
2022-08-17T14:24:58.327Z,30.90
2022-08-17T14:27:28.073Z,30.90
2022-08-17T14:29:56.398Z,31.00
2022-08-17T14:32:32.611Z,31.30
2022-08-17T14:35:00.094Z,31.40
2022-08-17T14:37:28.735Z,31.40
2022-08-17T14:39:58.649Z,31.60
2022-08-17T14:42:27.715Z,31.70
2022-08-17T14:44:55.894Z,31.80
2022-08-17T14:47:22.773Z,32.10
2022-08-17T14:49:49.611Z,32.20
2022-08-17T14:52:21.515Z,32.20
2022-08-17T14:54:51.242Z,32.00
2022-08-17T14:57:33.673Z,31.70
2022-08-17T15:00:02.166Z,31.70
2022-08-17T15:02:30.664Z,31.70
2022-08-17T15:05:05.698Z,31.70
2022-08-17T15:07:32.783Z,31.70
2022-08-17T15:10:01.339Z,31.70
2022-08-17T15:12:33.354Z,31.60
2022-08-17T15:15:05.546Z,31.40
2022-08-17T15:17:44.756Z,31.30
2022-08-17T15:20:18.979Z,30.80
2022-08-17T15:22:47.050Z,30.70
2022-08-17T15:25:14.586Z,30.50
2022-08-17T15:27:42.004Z,30.30
2022-08-17T15:30:10.187Z,30.00
2022-08-17T15:32:40.850Z,29.90
2022-08-17T15:35:11.794Z,29.80
2022-08-17T15:37:40.184Z,29.80
2022-08-17T15:40:09.080Z,29.80
2022-08-17T15:42:36.575Z,29.90
2022-08-17T15:45:10.882Z,29.90
2022-08-17T15:47:38.269Z,29.90
2022-08-17T15:50:07.534Z,29.90
2022-08-17T15:52:40.058Z,29.90
2022-08-17T15:55:10.731Z,29.90
2022-08-17T15:57:37.612Z,29.90
2022-08-17T16:00:06.215Z,29.90
2022-08-17T16:03:45.966Z,29.90
2022-08-17T16:05:31.200Z,29.90
2022-08-17T16:07:59.729Z,29.90
2022-08-17T16:10:35.162Z,30.10
2022-08-17T16:13:04.072Z,30.10
2022-08-17T16:15:33.682Z,30.30
2022-08-17T16:18:00.565Z,30.40
2022-08-17T16:20:27.716Z,30.60
2022-08-17T16:22:55.217Z,30.60
2022-08-17T16:25:52.144Z,30.60
2022-08-17T16:28:16.919Z,30.70
2022-08-17T16:30:44.282Z,30.90
2022-08-17T16:33:11.846Z,31.00
2022-08-17T16:35:39.608Z,31.00
2022-08-17T16:38:07.258Z,30.90
2022-08-17T16:40:35.756Z,30.90
2022-08-17T16:43:03.975Z,30.80
2022-08-17T16:45:36.563Z,30.60
2022-08-17T16:48:04.441Z,30.50
2022-08-17T16:50:32.538Z,30.50
2022-08-17T16:53:06.730Z,30.60
2022-08-17T16:55:35.759Z,30.70
2022-08-17T16:58:08.782Z,30.80
2022-08-17T17:00:36.684Z,30.90
2022-08-17T17:03:19.074Z,31.10
2022-08-17T17:06:02.801Z,31.20
2022-08-17T17:08:46.795Z,31.20
2022-08-17T17:11:21.487Z,31.10
2022-08-17T17:14:01.621Z,31.20
2022-08-17T17:17:12.966Z,31.30
2022-08-17T17:19:46.835Z,31.30
2022-08-17T17:22:24.445Z,31.30
2022-08-17T17:25:30.254Z,31.30
2022-08-17T17:28:15.906Z,31.40
2022-08-17T17:30:51.402Z,31.40
2022-08-17T17:33:22.511Z,31.40
2022-08-17T17:36:00.047Z,31.40
2022-08-17T17:38:34.299Z,31.40
2022-08-17T17:41:12.033Z,31.30
2022-08-17T17:43:40.879Z,31.10
2022-08-17T17:46:28.214Z,30.90
2022-08-17T17:48:56.762Z,30.70
2022-08-17T17:52:06.719Z,30.60
2022-08-17T17:54:19.405Z,30.50
2022-08-17T17:56:55.469Z,30.30
2022-08-17T17:59:32.844Z,30.20
2022-08-17T18:02:51.652Z,30.10
2022-08-17T18:05:25.231Z,29.90
2022-08-17T18:08:01.501Z,29.70
2022-08-17T18:10:41.550Z,29.50
2022-08-17T18:13:17.695Z,29.40
2022-08-17T18:15:54.016Z,29.20
2022-08-17T18:18:38.088Z,29.10
2022-08-17T18:21:19.304Z,29.00
2022-08-17T18:23:53.811Z,28.90
2022-08-17T18:26:32.795Z,28.70
2022-08-17T18:29:01.368Z,28.60
2022-08-17T18:31:28.142Z,28.50
2022-08-17T18:34:36.092Z,28.40
2022-08-17T18:37:05.869Z,28.30
2022-08-17T18:39:32.890Z,28.10
2022-08-17T18:42:03.019Z,28.00
2022-08-17T18:44:35.735Z,27.80
2022-08-17T18:47:08.386Z,27.60
2022-08-17T18:49:35.703Z,27.40
2022-08-17T18:52:27.766Z,27.20
2022-08-17T18:55:20.936Z,27.00
2022-08-17T18:57:58.809Z,26.70
2022-08-17T19:00:41.393Z,26.60
2022-08-17T19:03:19.963Z,26.50
2022-08-17T19:05:57.287Z,26.40
2022-08-17T19:08:30.016Z,26.40
2022-08-17T19:11:02.463Z,26.20
2022-08-17T19:13:40.947Z,26.00
2022-08-17T19:16:23.837Z,26.00
2022-08-17T19:19:15.066Z,25.90
2022-08-17T19:21:55.463Z,25.70
2022-08-17T19:24:24.642Z,25.60
2022-08-17T19:26:59.171Z,25.50
2022-08-17T19:29:39.546Z,25.30
2022-08-17T19:32:11.147Z,25.40
2022-08-17T19:34:39.337Z,25.30
2022-08-17T19:37:16.154Z,25.00
2022-08-17T19:39:49.011Z,24.60
2022-08-17T19:42:18.796Z,24.40
2022-08-17T19:45:08.049Z,24.50
2022-08-17T19:48:26.264Z,24.50
2022-08-17T19:51:24.434Z,24.90
2022-08-17T19:54:07.274Z,24.90
2022-08-17T19:57:02.012Z,24.80
2022-08-17T19:59:58.534Z,24.70
2022-08-17T20:02:34.247Z,24.70
2022-08-17T20:05:07.122Z,24.40
2022-08-17T20:08:03.804Z,24.20
2022-08-17T20:10:37.127Z,23.90
2022-08-17T20:13:11.301Z,23.70
2022-08-17T20:15:42.079Z,23.50
2022-08-17T20:18:27.515Z,23.40
2022-08-17T20:21:37.071Z,23.20
2022-08-17T20:24:28.278Z,23.00
2022-08-17T20:27:09.798Z,22.80
2022-08-17T20:30:07.951Z,22.70
2022-08-17T20:32:53.061Z,22.80
2022-08-17T20:35:35.420Z,22.80
2022-08-17T20:38:33.354Z,22.70
2022-08-17T20:41:03.847Z,22.60
2022-08-17T20:43:33.756Z,22.60
2022-08-17T20:46:19.605Z,22.60
2022-08-17T20:48:50.673Z,22.50
2022-08-17T20:51:19.401Z,22.40
2022-08-17T20:53:55.233Z,22.30
2022-08-17T20:56:43.675Z,22.40
2022-08-17T20:59:24.044Z,22.40
2022-08-17T21:02:19.363Z,22.30
2022-08-17T21:05:00.816Z,22.20
2022-08-17T21:07:43.458Z,22.30
2022-08-17T21:10:29.640Z,22.20
2022-08-17T21:13:10.117Z,22.10
2022-08-17T21:15:42.736Z,21.80
2022-08-17T21:18:15.496Z,21.60
2022-08-17T21:21:25.969Z,21.40
2022-08-17T21:24:30.432Z,21.30
2022-08-17T21:27:06.062Z,21.50
2022-08-17T21:29:34.196Z,21.50
2022-08-17T21:32:07.542Z,21.50
2022-08-17T21:35:07.499Z,21.30
2022-08-17T21:37:44.871Z,21.20
2022-08-17T21:40:17.941Z,21.10
2022-08-17T21:42:47.340Z,20.90
2022-08-17T21:45:22.607Z,20.80
2022-08-17T21:47:50.660Z,20.60
2022-08-17T21:50:24.467Z,20.60
2022-08-17T21:53:02.317Z,20.50
2022-08-17T21:55:32.445Z,20.50
2022-08-17T21:58:14.780Z,20.60
2022-08-17T22:00:46.009Z,20.70
2022-08-17T22:03:25.889Z,20.70
2022-08-17T22:05:52.688Z,20.70
2022-08-17T22:08:23.960Z,20.70
2022-08-17T22:11:01.137Z,20.40
2022-08-17T22:13:29.786Z,20.20
2022-08-17T22:16:29.518Z,20.10
2022-08-17T22:18:58.851Z,20.00
2022-08-17T22:21:26.360Z,20.10
2022-08-17T22:24:06.489Z,20.10
2022-08-17T22:26:59.112Z,20.00
2022-08-17T22:29:47.852Z,19.90
2022-08-17T22:32:50.373Z,20.00
2022-08-17T22:35:35.050Z,19.90
2022-08-17T22:38:19.805Z,19.90
2022-08-17T22:40:49.821Z,19.80
2022-08-17T22:43:21.299Z,19.70
2022-08-17T22:45:57.405Z,19.70
2022-08-17T22:48:27.940Z,19.70
2022-08-17T22:51:17.511Z,19.60
2022-08-17T22:54:14.950Z,19.70
2022-08-17T22:57:12.594Z,19.70
2022-08-17T22:59:51.438Z,19.70
2022-08-17T23:02:30.725Z,19.70
2022-08-17T23:05:23.931Z,19.50
2022-08-17T23:07:52.630Z,19.40
2022-08-17T23:10:19.649Z,19.30
2022-08-17T23:12:46.672Z,19.30
2022-08-17T23:15:16.520Z,19.20
2022-08-17T23:17:45.319Z,19.20
2022-08-17T23:20:14.939Z,19.10
2022-08-17T23:22:52.372Z,19.10
2022-08-17T23:25:31.447Z,19.00
2022-08-17T23:28:01.667Z,19.10
2022-08-17T23:30:31.156Z,19.20
2022-08-17T23:33:06.236Z,19.20
2022-08-17T23:35:40.563Z,19.10
2022-08-17T23:38:12.932Z,19.00
2022-08-17T23:40:40.733Z,19.00
2022-08-17T23:43:25.767Z,18.90
2022-08-17T23:45:57.505Z,18.90
2022-08-17T23:48:35.479Z,18.80
2022-08-17T23:51:15.340Z,18.80
2022-08-17T23:53:47.310Z,18.80
2022-08-17T23:56:14.727Z,18.80
2022-08-17T23:58:42.814Z,18.80
